Austin, Indiana
Current Conditions -  °F | °C
As of 8:32 AM on Sunday 21 Dec 2014 (Local Time) from KIMS Reporting Station
Overcast Overcast  
Wind Chill: 32°   Ceiling: 1200
Heat Index: 32°   Visibility: 5mi
Dew Point: 27°   Wind: 3mph
Humidity: 80%   Direction: 110°ESE
Pressure: 30.32"   Gusts: NA
Location:  38.76°N, 85.81°W
Report Text: KIMS 211332Z AUTO 11003KT 5SM OVC012 00/M03 A3032 RMK AO1
Loading
Personal Weather Stations






























Interactive Weather Map New forecast layout! Learn more

10-Day Weather Forecast

Advertisements
Track Severe Weather on mobile